General Aviation Weather

Text Reports

Enter one or more of the following location identifiers separated by a space:

Zip Code, Four-Character ICAO or Three-Character IATA airport codes.

METAR - Aviation Routine Weather Report
KGGE - Georgetown, South Carolina
Updated at 1:15 AM GMT on August 21, 2014 (9:15 PM EDT):
METAR KGGE 210115Z AUTO 00000KT 10SM CLR 26/26 A2999 RMK AO2
TAF - Terminal Area Forecast
KGGE - Georgetown, South Carolina
Updated at 1:15 AM GMT on August 21, 2014 (9:15 PM EDT):
No TAF is currently available for this location.
Decoded:
No decoded TAF is available.
PIREP - Pilot Weather Report
KGGE - Georgetown, South Carolina
Updated at 1:15 AM GMT on August 21, 2014 (9:15 PM EDT):
No PIREP is currently available for this location.
AIRMET - Airmens Meteorological Information
KGGE - Georgetown, South Carolina
Updated at 1:15 AM GMT on August 21, 2014 (9:15 PM EDT):
No AIRMET is currently available for this location.
SIGMET - Significant Meteorological Information
KGGE - Georgetown, South Carolina
Updated at 1:15 AM GMT on August 21, 2014 (9:15 PM EDT):
No SIGMET is currently available for this location.
NOTAM - Notice to Airmen
KGGE - Georgetown, South Carolina
Updated at 1:15 AM GMT on August 21, 2014 (9:15 PM EDT):
No NOTAM is currently available for this location.
Forecast Area
KGGE - Georgetown, South Carolina
Updated at 1:15 AM GMT on August 21, 2014 (9:15 PM EDT):
No NOTAM is currently available for this location.
Aviation Weather Maps